Weather at Askestad Airstrip

Public forecast

Using degrees Celsius for public forecast. Weather courtesy of forecast.io.

Closest aviation weather report (METAR) to Askestad Airstrip

Closest report is Moss Airport, Rygge, 25.8 nm (47.8 km) SSE.

2024/05/27 20:50 (retrieved 36 minutes ago)

ENRY 272050Z AUTO 16006KT 9000 FEW012/// SCT016/// 15/14 Q1015

Closest aviation forecast (TAF) to Askestad Airstrip

Closest forecast is Moss Airport, Rygge, 25.8 nm (47.8 km) SSE.

2024/05/27 18:38 (retrieved 3 hours ago)

TAF ENRY 271700Z 2718/2818 18008KT 9999 FEW008 BECMG 2718/2720 BKN008 PROB40 2720/2806 FEW008 BECMG 2806/2808 FEW040 TEMPO 2810/2813 SCT025TCU TEMPO 2813/2818 34015G25KT 4000 TSRA BKN018CB